createdAt,value
2023-05-06T00:03:40.710Z,18.2
2023-05-06T00:18:40.620Z,17.9
2023-05-06T00:33:40.542Z,17.5
2023-05-06T00:48:40.561Z,17.2
2023-05-06T01:03:40.528Z,16.8
2023-05-06T01:18:40.567Z,16.4
2023-05-06T01:33:40.469Z,16.2
2023-05-06T01:48:40.446Z,16
2023-05-06T02:03:40.461Z,15.8
2023-05-06T02:18:40.423Z,15.5
2023-05-06T02:33:40.364Z,15.2
2023-05-06T02:48:40.352Z,15
2023-05-06T03:03:40.266Z,14.7
2023-05-06T03:18:40.314Z,14.6
2023-05-06T03:33:40.225Z,14.4
2023-05-06T03:48:40.283Z,14.1
2023-05-06T04:03:40.246Z,13.8
2023-05-06T04:18:40.229Z,13.6
2023-05-06T04:33:40.170Z,13.6
2023-05-06T04:48:40.172Z,13.5
2023-05-06T05:03:40.178Z,14.2
2023-05-06T05:18:40.122Z,16.7
2023-05-06T05:33:40.184Z,19.7
2023-05-06T05:48:40.055Z,22.2
2023-05-06T06:03:40.233Z,23.8
2023-05-06T06:18:40.050Z,25.6
2023-05-06T06:33:39.961Z,25.7
2023-05-06T06:48:39.977Z,24.7
2023-05-06T07:03:39.884Z,25.4
2023-05-06T07:18:39.926Z,25.2
2023-05-06T07:33:39.848Z,25.7
2023-05-06T07:48:39.858Z,25.5
2023-05-06T08:03:40.001Z,26.7
2023-05-06T08:18:39.847Z,28.4
2023-05-06T08:33:39.748Z,29.7
2023-05-06T08:48:39.749Z,30.4
2023-05-06T09:03:39.703Z,30.9
2023-05-06T09:18:39.696Z,32
2023-05-06T09:33:39.623Z,33
2023-05-06T09:48:39.671Z,32.7
2023-05-06T10:03:39.718Z,27.9
2023-05-06T10:18:39.564Z,26.7
2023-05-06T10:33:42.218Z,24.9
2023-05-06T10:48:39.511Z,23.9
2023-05-06T11:03:39.503Z,23.5
2023-05-06T11:18:39.484Z,23.9
2023-05-06T11:33:39.403Z,24.3
2023-05-06T11:48:39.410Z,24.6
2023-05-06T12:03:39.581Z,25
2023-05-06T12:18:39.357Z,24.9
2023-05-06T12:33:39.295Z,24.9
2023-05-06T12:48:39.313Z,25.1
2023-05-06T13:03:39.299Z,25
2023-05-06T13:18:39.239Z,25
2023-05-06T13:33:39.200Z,25.2
2023-05-06T13:48:39.193Z,25.3
2023-05-06T14:03:39.156Z,25.4
2023-05-06T14:18:39.139Z,25.4
2023-05-06T14:33:39.080Z,25.6
2023-05-06T14:48:39.113Z,25.8
2023-05-06T15:03:39.024Z,25.9
2023-05-06T15:18:39.039Z,25.9
2023-05-06T15:33:38.965Z,25.9
2023-05-06T15:48:39.016Z,26
2023-05-06T16:03:38.997Z,26
2023-05-06T16:18:38.931Z,26.1
2023-05-06T16:33:38.905Z,26.1
2023-05-06T16:48:38.996Z,26.1
2023-05-06T17:03:38.860Z,26
2023-05-06T17:18:38.827Z,25.9
2023-05-06T17:33:38.778Z,25.7
2023-05-06T17:48:38.767Z,25.5
2023-05-06T18:03:38.787Z,25.1
2023-05-06T18:18:38.704Z,24.9
2023-05-06T18:33:38.640Z,24.3
2023-05-06T18:48:38.642Z,23.9
2023-05-06T19:03:38.612Z,23.7
2023-05-06T19:18:38.616Z,23.5
2023-05-06T19:33:38.584Z,23.5
2023-05-06T19:48:38.636Z,23.5
2023-05-06T20:03:38.634Z,23.3
2023-05-06T20:18:38.457Z,23.3
2023-05-06T20:33:38.399Z,22.9
2023-05-06T20:48:38.440Z,22.3
2023-05-06T21:03:38.417Z,21.8
2023-05-06T21:18:38.410Z,21.1
2023-05-06T21:33:38.302Z,20.7
2023-05-06T21:48:38.323Z,20.5
2023-05-06T22:03:38.331Z,20.3
2023-05-06T22:18:38.276Z,19.9
2023-05-06T22:33:38.194Z,19.7
2023-05-06T22:48:38.221Z,19.4
2023-05-06T23:03:38.246Z,19.2
2023-05-06T23:18:38.176Z,18.9
2023-05-06T23:33:38.075Z,18.6
2023-05-06T23:48:38.109Z,18.4
